Time;durP1;ratioP1;P1;durP2;ratioP2;P2;SDS_P1;SDS_P2;PMS_P1;PMS_P2;Temp;Humidity;BMP_temperature;BMP_pressure;BME280_temperature;BME280_humidity;BME280_pressure;Samples;Min_cycle;Max_cycle;Signal;HPM_P1;HPM_P2
2022/10/27 00:01:47;;;;;;;136.80;129.50;;;14.50;99.90;;;;;;5044619;28;20826;-57
2022/10/27 00:04:12;;;;;;;136.77;129.33;;;14.50;99.90;;;;;;5044288;28;20451;-58
2022/10/27 00:06:37;;;;;;;145.53;137.80;;;14.50;99.90;;;;;;5028974;28;20411;-59
2022/10/27 00:09:03;;;;;;;159.43;151.00;;;14.40;99.90;;;;;;5044447;28;20427;-57
2022/10/27 00:11:29;;;;;;;161.43;152.73;;;14.50;99.90;;;;;;5027304;28;20383;-58
2022/10/27 00:13:54;;;;;;;157.00;148.63;;;14.50;99.90;;;;;;5026756;28;20422;-57
2022/10/27 00:16:23;;;;;;;155.53;147.07;;;14.50;99.90;;;;;;5027641;28;20449;-58
2022/10/27 00:18:48;;;;;;;147.48;139.68;;;14.50;99.90;;;;;;5044804;28;20855;-58
2022/10/27 00:21:16;;;;;;;154.38;146.18;;;14.50;99.90;;;;;;5028196;28;20702;-59
2022/10/27 00:23:43;;;;;;;144.48;136.48;;;14.50;99.90;;;;;;5027322;28;20394;-59
2022/10/27 00:26:13;;;;;;;146.17;138.37;;;14.50;99.90;;;;;;5030897;28;20500;-57
2022/10/27 00:28:39;;;;;;;154.23;146.00;;;14.50;99.90;;;;;;5032032;28;20379;-59
2022/10/27 00:31:14;;;;;;;150.03;141.97;;;14.50;99.90;;;;;;5047186;28;20401;-59
2022/10/27 00:33:41;;;;;;;153.00;144.85;;;14.50;99.90;;;;;;5029984;28;20810;-59
2022/10/27 00:36:12;;;;;;;156.30;147.77;;;14.40;99.90;;;;;;5033020;28;20397;-55
2022/10/27 00:38:38;;;;;;;160.45;151.80;;;14.40;99.90;;;;;;5032406;28;20381;-57
2022/10/27 00:41:06;;;;;;;162.35;153.65;;;14.40;99.90;;;;;;5050585;28;20655;-56
2022/10/27 00:43:35;;;;;;;160.32;151.77;;;14.40;99.90;;;;;;5032175;28;20381;-56
2022/10/27 00:46:03;;;;;;;158.10;149.60;;;14.40;99.90;;;;;;5048518;28;20381;-58
2022/10/27 00:48:31;;;;;;;162.90;154.25;;;14.40;99.90;;;;;;5029663;28;20409;-53
2022/10/27 00:50:59;;;;;;;155.77;147.30;;;14.30;99.90;;;;;;5029601;28;20732;-60
2022/10/27 00:53:24;;;;;;;151.03;142.57;;;14.30;99.90;;;;;;5030577;28;20943;-58
2022/10/27 00:55:50;;;;;;;163.13;154.30;;;14.30;99.90;;;;;;5047707;28;20386;-59
2022/10/27 00:58:18;;;;;;;159.95;151.35;;;14.30;99.90;;;;;;5047515;28;20386;-58
2022/10/27 01:00:44;;;;;;;163.43;154.70;;;14.30;99.90;;;;;;5049571;28;20737;-56
2022/10/27 01:03:11;;;;;;;161.07;152.47;;;14.30;99.90;;;;;;5049812;28;20416;-57
2022/10/27 01:05:39;;;;;;;154.88;146.63;;;14.30;99.90;;;;;;5051200;28;20435;-59
2022/10/27 01:08:06;;;;;;;149.30;141.23;;;14.30;99.90;;;;;;5050103;28;20459;-55
2022/10/27 01:13:53;;;;;;;157.07;148.57;;;14.20;99.90;;;;;;5048884;28;20356;-58
2022/10/27 01:17:09;;;;;;;164.40;155.45;;;14.20;99.90;;;;;;5048512;28;20377;-58
2022/10/27 01:20:05;;;;;;;166.90;157.98;;;14.10;99.90;;;;;;5031065;28;20407;-59
2022/10/27 01:22:50;;;;;;;154.17;145.87;;;14.10;99.90;;;;;;5048040;28;20592;-58
2022/10/27 01:25:51;;;;;;;178.90;169.43;;;14.10;99.90;;;;;;5031479;28;20385;-62
2022/10/27 01:29:04;;;;;;;194.57;184.63;;;14.00;99.90;;;;;;5030825;28;20408;-58
2022/10/27 01:31:33;;;;;;;194.57;184.23;;;14.00;99.90;;;;;;5031062;28;20392;-59
2022/10/27 01:34:32;;;;;;;188.90;178.63;;;14.00;99.90;;;;;;5031240;28;20663;-59
2022/10/27 01:37:12;;;;;;;197.00;186.70;;;14.00;99.90;;;;;;5035339;28;20758;-59
2022/10/27 01:39:49;;;;;;;184.50;174.77;;;13.90;99.90;;;;;;5024533;28;20398;-57
2022/10/27 01:42:29;;;;;;;195.45;185.02;;;13.90;99.90;;;;;;5025459;28;20410;-57
2022/10/27 01:44:56;;;;;;;187.10;177.13;;;13.90;99.90;;;;;;5025055;28;20705;-55
2022/10/27 01:47:26;;;;;;;217.90;206.70;;;13.90;99.90;;;;;;5025795;28;20410;-58
2022/10/27 01:49:53;;;;;;;219.43;208.13;;;13.80;99.90;;;;;;5024069;28;20423;-55
2022/10/27 01:52:45;;;;;;;213.30;201.80;;;13.80;99.90;;;;;;5027536;28;20598;-58
2022/10/27 01:55:25;;;;;;;198.88;188.38;;;13.80;99.90;;;;;;5025924;28;20480;-59
2022/10/27 01:58:19;;;;;;;202.63;191.98;;;13.70;99.90;;;;;;5025693;28;20493;-56
2022/10/27 02:00:59;;;;;;;197.98;187.82;;;13.70;99.90;;;;;;5027567;28;20767;-57
2022/10/27 02:04:03;;;;;;;194.10;184.00;;;13.70;99.90;;;;;;5028539;28;20382;-57
2022/10/27 02:06:48;;;;;;;202.70;192.20;;;13.70;99.90;;;;;;4996486;28;20387;-58
2022/10/27 02:09:34;;;;;;;202.15;191.80;;;13.70;99.90;;;;;;5026492;28;20687;-57
2022/10/27 02:12:02;;;;;;;185.13;175.40;;;13.70;99.90;;;;;;5025714;28;20395;-58
2022/10/27 02:14:28;;;;;;;173.55;164.00;;;13.70;99.90;;;;;;5026662;28;20705;-55
2022/10/27 02:16:55;;;;;;;166.35;157.80;;;13.60;99.90;;;;;;5043334;28;20411;-54
2022/10/27 02:19:26;;;;;;;158.07;149.63;;;13.60;99.90;;;;;;5026550;28;20395;-59
2022/10/27 02:21:56;;;;;;;165.00;156.18;;;13.70;99.90;;;;;;5028277;28;20654;-57
2022/10/27 02:24:23;;;;;;;156.90;148.68;;;13.70;99.90;;;;;;5029554;28;20482;-59
2022/10/27 02:26:59;;;;;;;159.75;151.35;;;13.60;99.90;;;;;;5029085;28;20626;-59
2022/10/27 02:29:40;;;;;;;189.45;179.43;;;13.70;99.90;;;;;;5026421;28;20473;-58
2022/10/27 02:32:10;;;;;;;202.85;192.70;;;13.70;99.90;;;;;;5027716;28;20375;-58
2022/10/27 02:34:37;;;;;;;201.90;191.45;;;13.70;99.90;;;;;;5028894;28;20531;-56
2022/10/27 02:37:04;;;;;;;186.50;176.80;;;13.70;99.90;;;;;;5027900;28;20526;-59
2022/10/27 02:39:30;;;;;;;203.75;193.25;;;13.70;99.90;;;;;;5028876;28;20782;-59
2022/10/27 02:41:55;;;;;;;185.27;175.97;;;13.70;99.90;;;;;;5042377;28;20483;-59
2022/10/27 02:44:21;;;;;;;189.38;179.93;;;13.70;99.90;;;;;;5045171;28;20738;-60
2022/10/27 02:46:47;;;;;;;177.35;168.27;;;13.70;99.90;;;;;;5044844;28;20403;-59
2022/10/27 02:49:12;;;;;;;173.07;164.20;;;13.80;99.90;;;;;;5027372;28;20460;-59
2022/10/27 02:51:38;;;;;;;166.77;158.13;;;13.80;99.90;;;;;;5027016;28;20394;-59
2022/10/27 02:54:03;;;;;;;162.17;153.83;;;13.80;99.90;;;;;;5028653;28;20398;-59
2022/10/27 02:56:29;;;;;;;157.73;149.63;;;13.80;99.90;;;;;;5028367;28;20391;-59
2022/10/27 02:58:54;;;;;;;174.57;165.45;;;13.80;99.90;;;;;;5045628;28;20391;-59
2022/10/27 03:01:20;;;;;;;159.87;151.47;;;13.80;99.90;;;;;;5028362;28;20689;-57
2022/10/27 03:03:45;;;;;;;185.97;176.47;;;13.70;99.90;;;;;;5026336;28;20507;-56
2022/10/27 03:06:11;;;;;;;181.80;172.52;;;13.70;99.90;;;;;;5026301;28;20671;-59
2022/10/27 03:08:36;;;;;;;178.47;169.47;;;13.70;99.90;;;;;;5026735;28;20446;-55
2022/10/27 03:11:02;;;;;;;200.45;190.35;;;13.70;99.90;;;;;;5048278;28;20464;-58
2022/10/27 03:13:27;;;;;;;188.80;179.23;;;13.70;99.90;;;;;;5046762;28;20500;-60
2022/10/27 03:15:53;;;;;;;203.13;193.03;;;13.70;99.90;;;;;;5030078;28;20391;-55
2022/10/27 03:18:18;;;;;;;202.95;192.65;;;13.70;99.90;;;;;;5048111;28;20403;-58
2022/10/27 03:20:45;;;;;;;205.03;194.57;;;13.80;99.90;;;;;;5048794;28;20435;-57
2022/10/27 03:23:14;;;;;;;209.27;198.35;;;13.80;99.90;;;;;;5033278;28;20399;-58
2022/10/27 03:25:43;;;;;;;194.57;184.52;;;13.80;99.90;;;;;;5031858;28;20401;-59
2022/10/27 03:28:12;;;;;;;200.77;190.60;;;13.70;99.90;;;;;;5047379;28;20417;-59
2022/10/27 03:30:41;;;;;;;202.13;191.95;;;13.70;99.90;;;;;;5030814;28;20375;-59
2022/10/27 03:33:06;;;;;;;204.73;194.60;;;13.70;99.90;;;;;;5047187;28;20790;-58
2022/10/27 03:35:32;;;;;;;209.53;199.17;;;13.70;99.90;;;;;;5047933;28;20489;-57
2022/10/27 03:37:59;;;;;;;203.43;193.30;;;13.80;99.90;;;;;;5031629;28;20614;-55
2022/10/27 03:40:25;;;;;;;196.93;186.98;;;13.80;99.90;;;;;;5032898;28;20437;-53
2022/10/27 03:42:52;;;;;;;207.27;196.70;;;13.80;99.90;;;;;;5032294;28;20855;-59
2022/10/27 03:45:18;;;;;;;195.98;186.27;;;13.80;99.90;;;;;;5032349;28;20485;-57
2022/10/27 03:47:43;;;;;;;209.97;199.33;;;13.80;99.90;;;;;;5031675;28;20505;-58
2022/10/27 03:50:09;;;;;;;199.43;189.17;;;13.80;99.90;;;;;;5032227;28;20391;-56
2022/10/27 03:52:35;;;;;;;151.70;143.13;;;13.80;99.90;;;;;;5046571;28;20490;-59
2022/10/27 03:55:00;;;;;;;246.13;233.73;;;13.90;99.90;;;;;;5031329;28;20399;-57
2022/10/27 03:57:26;;;;;;;251.33;238.70;;;13.80;99.90;;;;;;5030290;28;20718;-57
2022/10/27 03:59:51;;;;;;;261.05;247.80;;;13.80;99.90;;;;;;5047407;28;20383;-58
2022/10/27 04:02:17;;;;;;;231.37;219.37;;;13.80;99.90;;;;;;5027432;28;20721;-59
2022/10/27 04:04:43;;;;;;;244.57;232.35;;;13.80;99.90;;;;;;5027674;28;20845;-57
2022/10/27 04:07:08;;;;;;;235.80;224.07;;;13.80;99.90;;;;;;5043326;28;20494;-58
2022/10/27 04:09:34;;;;;;;234.18;222.40;;;13.80;99.90;;;;;;5027710;28;20427;-55
2022/10/27 04:12:00;;;;;;;221.00;209.90;;;13.80;99.90;;;;;;5044543;28;20411;-58
2022/10/27 04:14:25;;;;;;;204.30;193.80;;;13.80;99.90;;;;;;5042337;28;20748;-57
2022/10/27 04:16:51;;;;;;;204.33;193.80;;;13.80;99.90;;;;;;5040970;28;20383;-58
2022/10/27 04:19:20;;;;;;;197.80;187.50;;;13.80;99.90;;;;;;5023271;28;20391;-57
2022/10/27 04:21:46;;;;;;;219.07;207.40;;;13.70;99.90;;;;;;5038518;28;20833;-58
2022/10/27 04:24:12;;;;;;;236.75;224.65;;;13.70;99.90;;;;;;5022567;28;20433;-55
2022/10/27 04:26:38;;;;;;;228.55;216.88;;;13.70;99.90;;;;;;5023578;28;20822;-54
2022/10/27 04:29:04;;;;;;;228.05;216.35;;;13.70;99.90;;;;;;5039376;28;20486;-59
2022/10/27 04:31:29;;;;;;;219.83;208.60;;;13.80;99.90;;;;;;5022973;28;20393;-59
2022/10/27 04:33:55;;;;;;;229.23;217.33;;;13.80;99.90;;;;;;5041142;28;20489;-59
2022/10/27 04:36:20;;;;;;;233.00;220.80;;;13.80;99.90;;;;;;5030330;28;20496;-57
2022/10/27 04:38:50;;;;;;;231.68;219.75;;;13.80;99.90;;;;;;5046857;28;20782;-59
2022/10/27 04:41:15;;;;;;;225.00;213.63;;;13.70;99.90;;;;;;5030712;28;20402;-58
2022/10/27 04:43:41;;;;;;;224.13;212.70;;;13.70;99.90;;;;;;5045300;28;20666;-57
2022/10/27 04:46:06;;;;;;;196.10;185.73;;;13.70;99.90;;;;;;5044814;28;20725;-58
2022/10/27 04:48:32;;;;;;;193.93;183.73;;;13.60;99.90;;;;;;5043883;28;20411;-57
2022/10/27 04:50:57;;;;;;;185.97;176.27;;;13.60;99.90;;;;;;5041601;28;20480;-59
2022/10/27 04:53:23;;;;;;;190.35;180.40;;;13.50;99.90;;;;;;5038804;28;20486;-58
2022/10/27 04:55:53;;;;;;;179.68;170.35;;;13.50;99.90;;;;;;5022085;28;20497;-57
2022/10/27 04:58:19;;;;;;;178.88;169.38;;;13.50;99.90;;;;;;5040198;28;20389;-59
2022/10/27 05:00:46;;;;;;;164.32;155.82;;;13.50;99.90;;;;;;5023154;28;20804;-59
2022/10/27 05:03:15;;;;;;;153.05;144.77;;;13.50;99.90;;;;;;5040795;28;20389;-58
2022/10/27 05:05:43;;;;;;;164.38;155.88;;;13.50;99.90;;;;;;5043140;28;20654;-59
2022/10/27 05:08:10;;;;;;;157.00;148.77;;;13.50;99.90;;;;;;5042528;28;20409;-58
2022/10/27 05:10:36;;;;;;;163.38;154.77;;;13.50;99.90;;;;;;5027237;28;20476;-60
2022/10/27 05:13:02;;;;;;;162.65;154.32;;;13.50;99.90;;;;;;5043030;28;20476;-58
2022/10/27 05:15:28;;;;;;;163.60;155.02;;;13.50;99.90;;;;;;5042333;28;20389;-60
2022/10/27 05:17:53;;;;;;;165.77;157.20;;;13.40;99.90;;;;;;5041599;28;20417;-59
2022/10/27 05:20:19;;;;;;;162.97;154.47;;;13.40;99.90;;;;;;5042878;28;20400;-59
2022/10/27 05:22:45;;;;;;;166.47;157.77;;;13.40;99.90;;;;;;5023337;28;20405;-59
2022/10/27 05:25:11;;;;;;;161.00;152.50;;;13.50;99.90;;;;;;5040286;28;20455;-57
2022/10/27 05:27:36;;;;;;;178.25;169.02;;;13.50;99.90;;;;;;5038877;28;20402;-59
2022/10/27 05:30:04;;;;;;;166.50;157.68;;;13.40;99.90;;;;;;5039894;28;20390;-59
2022/10/27 05:32:30;;;;;;;170.93;161.88;;;13.40;99.90;;;;;;5040193;28;20411;-59
2022/10/27 05:34:55;;;;;;;163.43;154.87;;;13.40;99.90;;;;;;5037933;28;20382;-59
2022/10/27 05:37:21;;;;;;;175.80;166.73;;;13.40;99.90;;;;;;5033026;28;20457;-56
2022/10/27 05:39:46;;;;;;;175.43;166.45;;;13.30;99.90;;;;;;5034533;28;20490;-56
2022/10/27 05:42:12;;;;;;;171.20;162.40;;;13.40;99.90;;;;;;5035129;28;20722;-56
2022/10/27 05:44:37;;;;;;;170.80;162.02;;;13.30;99.90;;;;;;5034121;28;20731;-59
2022/10/27 05:47:03;;;;;;;180.63;171.10;;;13.30;99.90;;;;;;5019667;28;20444;-59
2022/10/27 05:49:28;;;;;;;178.63;169.33;;;13.30;99.90;;;;;;5036175;28;20383;-60
2022/10/27 05:51:54;;;;;;;188.00;177.77;;;13.30;99.90;;;;;;5036412;28;20787;-59
2022/10/27 05:54:19;;;;;;;181.70;172.23;;;13.20;99.90;;;;;;5034200;28;20410;-57
2022/10/27 05:56:45;;;;;;;188.67;178.97;;;13.20;99.90;;;;;;5017770;28;20383;-60
2022/10/27 05:59:11;;;;;;;184.00;174.20;;;13.20;99.90;;;;;;5033260;28;20822;-60
2022/10/27 06:01:37;;;;;;;190.65;181.00;;;13.20;99.90;;;;;;5031861;28;20390;-60
2022/10/27 06:04:02;;;;;;;196.43;186.15;;;13.20;99.90;;;;;;5014570;28;20391;-54
2022/10/27 06:06:28;;;;;;;201.70;191.27;;;13.20;99.90;;;;;;5028702;28;20405;-57
2022/10/27 06:08:56;;;;;;;210.63;199.80;;;13.20;99.90;;;;;;5012181;28;20484;-57
2022/10/27 06:11:22;;;;;;;192.50;182.43;;;13.20;99.90;;;;;;5010976;28;20463;-59
2022/10/27 06:13:51;;;;;;;205.07;194.53;;;13.20;99.90;;;;;;5012989;28;20387;-59
2022/10/27 06:16:24;;;;;;;213.63;202.63;;;13.10;99.90;;;;;;5013436;28;20382;-54
2022/10/27 06:18:53;;;;;;;213.20;202.35;;;13.10;99.90;;;;;;5016362;28;20754;-58
2022/10/27 06:21:22;;;;;;;225.60;214.10;;;13.10;99.90;;;;;;5015276;28;20797;-59
2022/10/27 06:23:48;;;;;;;217.82;206.57;;;13.10;99.90;;;;;;5031567;28;20702;-59
2022/10/27 06:26:14;;;;;;;211.77;200.93;;;13.10;99.90;;;;;;5015411;28;20854;-59
2022/10/27 06:28:40;;;;;;;218.87;207.53;;;13.10;99.90;;;;;;5012029;28;20411;-57
2022/10/27 06:31:05;;;;;;;212.00;201.03;;;13.10;99.90;;;;;;5026575;28;20679;-59
2022/10/27 06:33:31;;;;;;;225.40;214.00;;;13.20;99.90;;;;;;5027910;28;20748;-59
2022/10/27 06:35:57;;;;;;;218.23;207.10;;;13.20;99.90;;;;;;5012068;28;20391;-58
2022/10/27 06:38:22;;;;;;;215.30;204.17;;;13.20;99.90;;;;;;5031497;28;20478;-58
2022/10/27 06:40:48;;;;;;;221.97;210.20;;;13.10;99.90;;;;;;5031931;28;20389;-59
2022/10/27 06:43:14;;;;;;;220.13;208.88;;;13.20;99.90;;;;;;5035978;28;20568;-59
2022/10/27 06:45:39;;;;;;;218.63;207.43;;;13.20;99.90;;;;;;5033731;28;20385;-59
2022/10/27 06:48:07;;;;;;;219.50;208.20;;;13.20;99.90;;;;;;5035463;28;20651;-58
2022/10/27 06:50:33;;;;;;;213.40;202.15;;;13.20;99.90;;;;;;5016125;28;20464;-59
2022/10/27 06:53:00;;;;;;;208.27;197.48;;;13.20;99.90;;;;;;5031679;28;20383;-58
2022/10/27 06:55:31;;;;;;;180.30;170.93;;;13.20;99.90;;;;;;5030408;28;20586;-56
2022/10/27 06:57:57;;;;;;;181.45;171.85;;;13.20;99.90;;;;;;5028757;28;20381;-59
2022/10/27 07:00:23;;;;;;;176.93;167.20;;;13.10;99.90;;;;;;5030023;28;20389;-57
2022/10/27 07:02:48;;;;;;;169.90;160.85;;;13.10;99.90;;;;;;5028936;28;20552;-59
2022/10/27 07:05:14;;;;;;;166.70;157.68;;;13.10;99.90;;;;;;5029718;28;20800;-59
2022/10/27 07:07:44;;;;;;;176.47;167.20;;;13.10;99.90;;;;;;5011890;28;20474;-57
2022/10/27 07:10:09;;;;;;;167.32;158.30;;;13.10;99.90;;;;;;5011727;28;20378;-57
2022/10/27 07:12:35;;;;;;;184.02;174.20;;;13.20;99.90;;;;;;5028235;28;20842;-59
2022/10/27 07:15:01;;;;;;;175.23;165.68;;;13.20;99.90;;;;;;5031787;28;20655;-58
2022/10/27 07:17:26;;;;;;;176.93;167.43;;;13.20;99.90;;;;;;5031798;28;20566;-57
2022/10/27 07:19:52;;;;;;;184.60;174.77;;;13.20;99.90;;;;;;5031221;28;20393;-59
2022/10/27 07:22:17;;;;;;;171.55;162.30;;;13.20;99.90;;;;;;5033190;28;20886;-58
2022/10/27 07:24:43;;;;;;;163.60;154.83;;;13.20;99.90;;;;;;5036137;28;20590;-59
2022/10/27 07:27:09;;;;;;;180.13;170.33;;;13.20;99.90;;;;;;5034152;28;20424;-58
2022/10/27 07:29:34;;;;;;;186.77;176.75;;;13.20;99.90;;;;;;5032959;28;20385;-57
2022/10/27 07:32:00;;;;;;;186.75;176.82;;;13.30;99.90;;;;;;5014713;28;20482;-56
2022/10/27 07:34:26;;;;;;;194.40;184.25;;;13.30;99.90;;;;;;5029800;28;20386;-54
2022/10/27 07:36:51;;;;;;;187.43;177.30;;;13.30;99.90;;;;;;5032351;28;20530;-57
2022/10/27 07:39:17;;;;;;;205.48;194.40;;;13.30;99.90;;;;;;5033188;28;20432;-58
2022/10/27 07:41:42;;;;;;;187.32;176.90;;;13.30;99.90;;;;;;5032468;28;20481;-59
2022/10/27 07:44:08;;;;;;;195.03;184.53;;;13.30;99.90;;;;;;5015490;28;20666;-60
2022/10/27 07:46:37;;;;;;;203.00;192.00;;;13.30;99.90;;;;;;5031368;28;20392;-58
2022/10/27 07:49:05;;;;;;;213.25;202.02;;;13.30;99.90;;;;;;5014126;28;20609;-60
2022/10/27 07:51:36;;;;;;;220.30;208.43;;;13.30;99.90;;;;;;5030838;28;20785;-60
2022/10/27 07:54:02;;;;;;;210.50;199.32;;;13.40;99.90;;;;;;5032071;28;20608;-59
2022/10/27 07:56:28;;;;;;;203.80;193.03;;;13.40;99.90;;;;;;5032784;28;20664;-53
2022/10/27 07:58:53;;;;;;;230.27;218.23;;;13.40;99.90;;;;;;5033261;28;20495;-52
2022/10/27 08:01:19;;;;;;;238.63;225.68;;;13.50;99.90;;;;;;5035525;28;20813;-51
2022/10/27 08:03:45;;;;;;;219.10;207.03;;;13.40;99.90;;;;;;5036265;28;20500;-54
2022/10/27 08:06:11;;;;;;;234.02;221.63;;;13.40;99.90;;;;;;5037127;28;20390;-52
2022/10/27 08:08:36;;;;;;;229.85;217.48;;;13.40;99.90;;;;;;5033984;28;20617;-55
2022/10/27 08:11:02;;;;;;;239.60;226.77;;;13.40;99.90;;;;;;5033319;28;20478;-60
2022/10/27 08:13:27;;;;;;;241.88;228.73;;;13.40;99.90;;;;;;5038556;28;20848;-60
2022/10/27 08:15:56;;;;;;;231.20;218.93;;;13.40;99.90;;;;;;5039767;28;20477;-60
2022/10/27 08:18:21;;;;;;;238.98;226.52;;;13.40;99.90;;;;;;5022458;28;20385;-59
2022/10/27 08:20:47;;;;;;;230.88;218.77;;;13.50;99.90;;;;;;5039914;28;20424;-59
2022/10/27 08:23:19;;;;;;;222.80;210.67;;;13.60;99.90;;;;;;5040954;28;20817;-59
2022/10/27 08:25:44;;;;;;;223.43;211.93;;;13.50;99.90;;;;;;5025654;28;20394;-58
2022/10/27 08:28:11;;;;;;;227.45;215.68;;;13.50;99.90;;;;;;5040835;28;20432;-59
2022/10/27 08:30:40;;;;;;;244.93;231.95;;;13.60;99.90;;;;;;5022126;28;20378;-58
2022/10/27 08:33:10;;;;;;;241.10;228.63;;;13.70;99.90;;;;;;5026308;28;20387;-58
2022/10/27 08:35:36;;;;;;;237.37;224.67;;;13.80;99.90;;;;;;5043982;28;20373;-60
2022/10/27 08:38:05;;;;;;;222.77;210.98;;;13.90;99.90;;;;;;5043857;28;20471;-60
2022/10/27 08:41:00;;;;;;;236.18;223.48;;;13.90;99.90;;;;;;5028244;28;20423;-59
2022/10/27 08:43:28;;;;;;;226.55;214.50;;;14.00;99.90;;;;;;5028211;28;20834;-60
2022/10/27 08:46:01;;;;;;;223.10;210.80;;;14.00;99.90;;;;;;5042612;28;20401;-60
2022/10/27 08:48:32;;;;;;;227.00;214.70;;;14.10;99.90;;;;;;5045580;28;20401;-60
2022/10/27 08:50:59;;;;;;;239.93;227.15;;;14.00;99.90;;;;;;5027724;28;20386;-58
2022/10/27 08:53:30;;;;;;;223.95;211.93;;;14.10;99.90;;;;;;5028594;28;20393;-59
2022/10/27 08:56:13;;;;;;;217.38;205.55;;;14.10;99.90;;;;;;5026917;28;20505;-60
2022/10/27 08:58:49;;;;;;;225.88;213.60;;;14.10;99.90;;;;;;5028823;28;20393;-59
2022/10/27 09:01:31;;;;;;;237.52;224.52;;;14.20;99.90;;;;;;5046954;28;20480;-59
2022/10/27 09:04:03;;;;;;;237.07;224.23;;;14.20;99.90;;;;;;5027587;28;20381;-59
2022/10/27 09:06:51;;;;;;;252.40;238.95;;;14.30;99.90;;;;;;5025778;28;20789;-60
2022/10/27 09:09:31;;;;;;;266.10;251.75;;;14.60;99.90;;;;;;5026202;28;20551;-59
2022/10/27 09:12:48;;;;;;;174.48;164.68;;;14.90;99.90;;;;;;5024143;28;20380;-59
2022/10/27 09:15:23;;;;;;;144.20;136.43;;;15.20;99.90;;;;;;5013002;28;20382;-59
2022/10/27 09:18:03;;;;;;;160.27;151.57;;;15.60;99.90;;;;;;5022116;28;20476;-59
2022/10/27 09:20:41;;;;;;;182.43;172.68;;;15.60;99.90;;;;;;5038733;28;20374;-59
2022/10/27 09:23:13;;;;;;;203.82;193.02;;;15.70;99.90;;;;;;5039860;28;20400;-60
2022/10/27 09:25:40;;;;;;;214.05;202.43;;;15.80;99.90;;;;;;5019305;28;20480;-59
2022/10/27 09:28:11;;;;;;;216.83;204.97;;;15.80;99.90;;;;;;5021687;28;20671;-60
2022/10/27 09:30:39;;;;;;;217.63;205.15;;;15.70;99.90;;;;;;5040761;28;20384;-59
2022/10/27 09:33:12;;;;;;;211.48;200.13;;;15.70;99.90;;;;;;5022650;28;20415;-59
2022/10/27 09:35:38;;;;;;;213.57;201.48;;;15.60;99.90;;;;;;5025298;28;20519;-59
2022/10/27 09:38:12;;;;;;;202.30;190.93;;;15.70;99.90;;;;;;5023968;28;20587;-56
2022/10/27 09:40:37;;;;;;;190.13;179.80;;;15.60;99.90;;;;;;5025585;28;20612;-58
2022/10/27 09:43:03;;;;;;;209.10;197.37;;;15.70;99.90;;;;;;5042051;28;20655;-59
2022/10/27 09:45:28;;;;;;;200.00;188.97;;;15.80;99.90;;;;;;5041358;28;20393;-59
2022/10/27 09:48:21;;;;;;;207.43;195.35;;;15.90;99.90;;;;;;5023665;28;20417;-60
2022/10/27 09:51:09;;;;;;;195.75;184.25;;;16.10;99.90;;;;;;5023628;28;20447;-59
2022/10/27 09:53:42;;;;;;;174.02;163.60;;;16.20;99.90;;;;;;5023981;28;20447;-57
2022/10/27 09:56:12;;;;;;;157.05;147.55;;;16.30;99.90;;;;;;5024589;28;20385;-60
2022/10/27 09:59:03;;;;;;;158.80;149.23;;;16.30;99.90;;;;;;5044169;28;20396;-59
2022/10/27 10:01:55;;;;;;;163.80;153.93;;;16.20;99.90;;;;;;5032801;28;20464;-58
2022/10/27 10:04:41;;;;;;;168.93;158.77;;;16.20;99.90;;;;;;5025847;28;20389;-60
2022/10/27 10:07:26;;;;;;;178.57;167.63;;;16.30;99.90;;;;;;5027472;28;20401;-59
2022/10/27 10:10:16;;;;;;;169.80;159.63;;;16.20;99.90;;;;;;5045361;28;20385;-58
2022/10/27 10:12:42;;;;;;;171.63;161.30;;;16.30;99.90;;;;;;5029768;28;20692;-59
2022/10/27 10:15:10;;;;;;;163.87;154.13;;;16.20;99.90;;;;;;5045150;28;20846;-59
2022/10/27 10:17:39;;;;;;;164.98;155.20;;;16.30;99.90;;;;;;5045951;28;20897;-56
2022/10/27 10:20:07;;;;;;;170.30;160.60;;;16.40;99.90;;;;;;5030313;28;20385;-58
2022/10/27 10:22:34;;;;;;;159.35;149.93;;;16.40;99.90;;;;;;5029313;28;20393;-58
2022/10/27 10:25:15;;;;;;;162.90;153.23;;;16.50;99.90;;;;;;5026283;28;20381;-57
2022/10/27 10:27:47;;;;;;;170.27;160.15;;;16.50;99.90;;;;;;5040539;28;20404;-56
2022/10/27 10:30:19;;;;;;;173.52;163.02;;;16.50;99.90;;;;;;5024104;28;20405;-58
2022/10/27 10:32:50;;;;;;;178.90;168.40;;;16.50;99.90;;;;;;5026667;28;20377;-58
2022/10/27 10:35:41;;;;;;;167.65;157.88;;;16.50;99.90;;;;;;5027025;28;20405;-60
2022/10/27 10:38:33;;;;;;;166.03;156.20;;;16.50;99.90;;;;;;5028878;28;20423;-59
2022/10/27 10:41:10;;;;;;;185.60;174.53;;;16.50;99.90;;;;;;5034747;28;20389;-59
2022/10/27 10:43:37;;;;;;;175.07;164.23;;;16.60;99.90;;;;;;5042475;28;20384;-58
2022/10/27 10:46:04;;;;;;;172.32;162.65;;;16.70;99.90;;;;;;5028504;28;20408;-59
2022/10/27 10:48:45;;;;;;;162.70;153.43;;;16.80;99.90;;;;;;5027503;28;20409;-59
2022/10/27 10:51:12;;;;;;;154.02;144.95;;;16.90;99.90;;;;;;5043288;28;20752;-59
2022/10/27 10:53:49;;;;;;;160.15;150.88;;;16.90;99.90;;;;;;5023751;28;20820;-60
2022/10/27 10:56:28;;;;;;;161.20;151.55;;;17.00;99.90;;;;;;5023383;28;20390;-59
2022/10/27 10:59:20;;;;;;;157.05;148.10;;;17.10;99.90;;;;;;5021779;28;21008;-58
2022/10/27 11:02:10;;;;;;;151.17;142.50;;;17.20;99.90;;;;;;5037416;28;20389;-59
2022/10/27 11:04:43;;;;;;;137.25;129.73;;;17.30;99.90;;;;;;5016719;28;20496;-59
2022/10/27 11:07:27;;;;;;;125.75;118.97;;;17.50;99.90;;;;;;5020702;28;20420;-59
2022/10/27 11:09:58;;;;;;;115.50;109.05;;;17.60;99.90;;;;;;5021031;28;20382;-59
2022/10/27 11:13:01;;;;;;;114.70;108.28;;;17.60;99.90;;;;;;5039965;28;20385;-59
2022/10/27 11:15:43;;;;;;;101.05;95.75;;;17.60;99.90;;;;;;5042272;28;20439;-60
2022/10/27 11:18:20;;;;;;;103.05;97.45;;;17.70;99.90;;;;;;5043290;28;20805;-59
2022/10/27 11:20:53;;;;;;;111.25;105.15;;;17.80;99.90;;;;;;5024742;28;20945;-56
2022/10/27 11:23:23;;;;;;;104.28;98.38;;;17.80;99.90;;;;;;5041063;28;20998;-58
2022/10/27 11:25:49;;;;;;;101.03;95.63;;;17.90;99.90;;;;;;5018425;28;20388;-56
2022/10/27 11:28:22;;;;;;;89.95;85.22;;;18.00;99.90;;;;;;5019269;28;20409;-60
2022/10/27 11:30:55;;;;;;;90.30;85.50;;;18.00;99.90;;;;;;5013881;28;20381;-56
2022/10/27 11:33:44;;;;;;;92.80;87.82;;;18.20;99.90;;;;;;5014111;28;20428;-57
2022/10/27 11:36:15;;;;;;;83.55;79.07;;;18.30;99.90;;;;;;5033385;28;20405;-60
2022/10/27 11:39:14;;;;;;;80.53;76.30;;;18.60;99.90;;;;;;5021121;28;20428;-59
2022/10/27 11:42:15;;;;;;;80.47;76.25;;;19.00;99.90;;;;;;5022417;28;21372;-59
2022/10/27 11:45:19;;;;;;;93.47;88.63;;;19.40;99.90;;;;;;5018721;28;20816;-59
2022/10/27 11:47:54;;;;;;;151.38;142.90;;;19.70;99.90;;;;;;5031053;28;20397;-60
2022/10/27 11:50:37;;;;;;;137.20;129.70;;;19.70;99.90;;;;;;5014614;28;21049;-57
2022/10/27 11:53:03;;;;;;;135.48;128.35;;;19.90;99.90;;;;;;5033290;28;20442;-60
2022/10/27 11:56:06;;;;;;;141.93;134.07;;;20.00;99.90;;;;;;5033862;28;20470;-58
2022/10/27 11:58:59;;;;;;;137.50;130.10;;;20.10;99.90;;;;;;5028862;28;20496;-60
2022/10/27 12:01:36;;;;;;;134.95;127.78;;;20.20;99.90;;;;;;5023168;28;20474;-60
2022/10/27 12:04:19;;;;;;;132.68;125.53;;;20.40;99.90;;;;;;5025507;28;20392;-59
2022/10/27 12:07:09;;;;;;;146.50;138.55;;;20.40;99.90;;;;;;5006148;28;20403;-59
2022/10/27 12:10:23;;;;;;;148.30;140.23;;;20.50;99.90;;;;;;5008623;28;20709;-59
2022/10/27 12:12:53;;;;;;;142.35;134.93;;;20.40;99.90;;;;;;5002390;28;20615;-56
2022/10/27 12:15:30;;;;;;;166.00;156.80;;;20.40;99.90;;;;;;5007776;28;20801;-60
2022/10/27 12:18:15;;;;;;;134.07;127.18;;;20.20;99.90;;;;;;5007510;28;20390;-59
2022/10/27 12:20:57;;;;;;;129.47;122.77;;;20.10;99.90;;;;;;5007872;28;20836;-58
2022/10/27 12:23:26;;;;;;;149.30;141.18;;;20.10;99.90;;;;;;5007021;28;20553;-59
2022/10/27 12:25:57;;;;;;;134.07;127.20;;;20.10;99.90;;;;;;5024582;28;21051;-60
2022/10/27 12:28:25;;;;;;;124.20;117.53;;;20.10;99.90;;;;;;5032150;28;20518;-60
2022/10/27 12:30:51;;;;;;;119.90;113.75;;;20.10;99.90;;;;;;5015945;28;20526;-60
2022/10/27 12:33:27;;;;;;;130.73;123.50;;;20.10;99.90;;;;;;5013369;28;20537;-60